Time;durP1;ratioP1;P1;durP2;ratioP2;P2;SDS_P1;SDS_P2;PMS_P1;PMS_P2;Temp;Humidity;BMP_temperature;BMP_pressure;BME280_temperature;BME280_humidity;BME280_pressure;Samples;Min_cycle;Max_cycle;Signal;HPM_P1;HPM_P2
2022/02/12 00:00:09;;;;;;;4.53;2.30;;;7.80;56.00;;;;;;4997041;28;20030;-65
2022/02/12 00:02:35;;;;;;;7.30;2.55;;;7.80;56.10;;;;;;5014194;28;20468;-64
2022/02/12 00:05:01;;;;;;;4.82;2.35;;;7.90;55.90;;;;;;4996933;28;20036;-63
2022/02/12 00:07:26;;;;;;;9.02;2.85;;;7.90;55.80;;;;;;5013576;28;20038;-62
2022/02/12 00:09:53;;;;;;;8.40;2.35;;;7.90;56.00;;;;;;5014160;28;20026;-63
2022/02/12 00:12:19;;;;;;;4.70;2.13;;;7.80;56.00;;;;;;5014482;28;20100;-63
2022/02/12 00:14:45;;;;;;;7.43;2.80;;;7.80;56.10;;;;;;5014431;28;20033;-62
2022/02/12 00:17:11;;;;;;;4.40;2.30;;;7.80;56.30;;;;;;4996736;28;20036;-63
2022/02/12 00:19:37;;;;;;;4.72;2.40;;;7.80;56.30;;;;;;5013611;28;20026;-63
2022/02/12 00:22:03;;;;;;;4.05;2.25;;;7.80;56.20;;;;;;4996688;28;20026;-63
2022/02/12 00:24:29;;;;;;;6.90;2.42;;;7.80;56.30;;;;;;5013300;28;20412;-63
2022/02/12 00:26:54;;;;;;;5.95;2.78;;;7.90;56.30;;;;;;5014039;28;20040;-64
2022/02/12 00:29:20;;;;;;;5.43;2.30;;;8.00;56.30;;;;;;4996537;28;20113;-64
2022/02/12 00:31:46;;;;;;;4.78;2.60;;;8.00;56.40;;;;;;5013287;28;20032;-64
2022/02/12 00:34:11;;;;;;;4.63;2.08;;;7.90;56.50;;;;;;4996569;28;20049;-66
2022/02/12 00:36:37;;;;;;;7.03;2.20;;;7.90;56.60;;;;;;4995666;28;20120;-63
2022/02/12 00:39:04;;;;;;;6.93;2.58;;;7.90;56.70;;;;;;5013541;28;20468;-63
2022/02/12 00:41:30;;;;;;;5.18;2.35;;;7.90;56.90;;;;;;4994460;28;20104;-63
2022/02/12 00:43:55;;;;;;;7.10;2.28;;;7.90;57.00;;;;;;5013435;28;20030;-63
2022/02/12 00:46:40;;;;;;;7.00;2.58;;;7.80;57.30;;;;;;5013613;28;20397;-65
2022/02/12 00:49:05;;;;;;;9.15;2.85;;;7.80;57.40;;;;;;5013382;28;20030;-64
2022/02/12 00:51:31;;;;;;;7.53;2.50;;;7.80;57.40;;;;;;5012780;28;20526;-64
2022/02/12 00:53:57;;;;;;;7.28;2.80;;;7.80;58.10;;;;;;5013677;28;20026;-63
2022/02/12 00:56:24;;;;;;;8.38;2.63;;;7.80;58.90;;;;;;5013397;28;20030;-64
2022/02/12 00:58:50;;;;;;;6.03;2.85;;;7.70;59.90;;;;;;5013262;28;20034;-64
2022/02/12 01:01:16;;;;;;;7.10;2.80;;;7.60;59.90;;;;;;5013397;28;20025;-63
2022/02/12 01:03:41;;;;;;;6.30;3.05;;;7.70;59.90;;;;;;4995133;28;20044;-63
2022/02/12 01:06:07;;;;;;;8.23;2.83;;;7.60;60.20;;;;;;4995726;28;20485;-63
2022/02/12 01:08:33;;;;;;;7.95;2.40;;;7.60;60.90;;;;;;5012443;28;20072;-63
2022/02/12 01:10:58;;;;;;;6.78;2.60;;;7.50;61.10;;;;;;5013633;28;20038;-62
2022/02/12 01:13:24;;;;;;;6.63;2.60;;;7.60;61.20;;;;;;5013553;28;20099;-63
2022/02/12 01:15:50;;;;;;;7.55;2.75;;;7.60;60.80;;;;;;5012203;28;20065;-64
2022/02/12 01:18:15;;;;;;;7.60;2.78;;;7.60;60.40;;;;;;5013121;28;20195;-63
2022/02/12 01:20:41;;;;;;;7.70;2.70;;;7.60;60.20;;;;;;5012406;28;20033;-64
2022/02/12 01:23:07;;;;;;;7.30;3.17;;;7.60;60.10;;;;;;5012981;28;20473;-63
2022/02/12 01:25:33;;;;;;;9.30;2.80;;;7.70;59.90;;;;;;5012309;28;20102;-64
2022/02/12 01:27:59;;;;;;;5.65;2.47;;;7.70;59.70;;;;;;5013059;28;20026;-64
2022/02/12 01:30:26;;;;;;;7.13;2.97;;;7.60;59.80;;;;;;5012888;28;20029;-64
2022/02/12 01:32:53;;;;;;;7.85;2.78;;;7.70;59.70;;;;;;5012993;28;20034;-63
2022/02/12 01:35:23;;;;;;;7.93;2.90;;;7.70;59.50;;;;;;5012687;28;20030;-63
2022/02/12 01:37:49;;;;;;;8.63;2.90;;;7.70;59.60;;;;;;4994681;28;20042;-63
2022/02/12 01:40:15;;;;;;;7.95;3.20;;;7.70;59.50;;;;;;4995171;28;20061;-64
2022/02/12 01:42:41;;;;;;;5.85;2.45;;;7.60;59.50;;;;;;5011864;28;20094;-63
2022/02/12 01:45:07;;;;;;;7.93;2.70;;;7.60;59.80;;;;;;4995044;28;20026;-64
2022/02/12 01:47:33;;;;;;;7.65;3.38;;;7.60;59.80;;;;;;5012271;28;20472;-63
2022/02/12 01:49:59;;;;;;;7.45;3.00;;;7.50;60.00;;;;;;5012576;28;20041;-64
2022/02/12 01:52:29;;;;;;;5.20;2.40;;;7.50;60.10;;;;;;5012072;28;20072;-63
2022/02/12 01:54:54;;;;;;;6.93;2.83;;;7.50;60.00;;;;;;4994876;28;20388;-63
2022/02/12 01:57:20;;;;;;;7.32;2.92;;;7.50;60.60;;;;;;4994617;28;20057;-63
2022/02/12 01:59:46;;;;;;;8.40;3.30;;;7.50;60.40;;;;;;5011879;28;20029;-63
2022/02/12 02:02:12;;;;;;;7.68;3.30;;;7.40;60.80;;;;;;5012435;28;20026;-62
2022/02/12 02:04:56;;;;;;;8.02;3.30;;;7.40;61.00;;;;;;5011899;28;20030;-63
2022/02/12 02:07:22;;;;;;;7.32;3.13;;;7.30;60.90;;;;;;5012193;28;20026;-64
2022/02/12 02:09:49;;;;;;;7.95;2.97;;;7.40;61.40;;;;;;4994018;28;20084;-63
2022/02/12 02:12:15;;;;;;;7.30;3.05;;;7.50;60.80;;;;;;5012109;28;20101;-63
2022/02/12 02:14:41;;;;;;;6.85;3.15;;;7.50;60.40;;;;;;5011889;28;20069;-63
2022/02/12 02:17:08;;;;;;;6.65;3.00;;;7.50;60.50;;;;;;5011954;28;20453;-64
2022/02/12 02:19:34;;;;;;;7.78;3.40;;;7.50;60.40;;;;;;4994193;28;20032;-63
2022/02/12 02:22:01;;;;;;;9.20;3.22;;;7.60;60.40;;;;;;5011973;28;20108;-63
2022/02/12 02:24:28;;;;;;;9.95;3.10;;;7.60;60.40;;;;;;5011684;28;20137;-64
2022/02/12 02:27:03;;;;;;;9.07;3.58;;;7.60;60.40;;;;;;4993803;28;20033;-63
2022/02/12 02:29:29;;;;;;;7.22;3.20;;;7.60;60.30;;;;;;5011873;28;20033;-63
2022/02/12 02:31:56;;;;;;;7.25;3.13;;;7.60;60.40;;;;;;5011662;28;20473;-63
2022/02/12 02:34:22;;;;;;;10.98;3.30;;;7.60;60.60;;;;;;5012379;28;20109;-64
2022/02/12 02:36:47;;;;;;;9.27;3.58;;;7.60;60.60;;;;;;5011607;28;20540;-63
2022/02/12 02:39:13;;;;;;;8.57;3.45;;;7.60;60.70;;;;;;4994720;28;20026;-63
2022/02/12 02:41:39;;;;;;;6.93;3.10;;;7.50;61.00;;;;;;4993879;28;20061;-62
2022/02/12 02:44:04;;;;;;;11.32;4.00;;;7.50;61.00;;;;;;4994046;28;20029;-63
2022/02/12 02:46:30;;;;;;;8.35;3.17;;;7.50;61.10;;;;;;5012479;28;20070;-63
2022/02/12 02:48:56;;;;;;;9.73;3.50;;;7.50;61.10;;;;;;5011523;28;20026;-64
2022/02/12 02:56:50;;;;;;;6.35;3.42;;;7.50;60.90;;;;;;5011451;28;20518;-64
2022/02/12 02:59:15;;;;;;;10.75;3.78;;;7.50;61.10;;;;;;5011690;28;20533;-63
2022/02/12 03:01:41;;;;;;;9.85;3.47;;;7.50;61.10;;;;;;4993876;28;20465;-63
2022/02/12 03:04:07;;;;;;;7.55;3.15;;;7.40;61.30;;;;;;5012017;28;20342;-63
2022/02/12 03:06:33;;;;;;;9.05;3.90;;;7.40;61.40;;;;;;5015163;28;20108;-64
2022/02/12 03:08:59;;;;;;;10.52;3.75;;;7.40;61.30;;;;;;5014511;28;20029;-63
2022/02/12 03:11:25;;;;;;;8.32;3.30;;;7.50;61.30;;;;;;5015476;28;20030;-63
2022/02/12 03:13:52;;;;;;;7.45;3.78;;;7.50;61.40;;;;;;4996491;28;20033;-63
2022/02/12 03:16:18;;;;;;;6.88;3.45;;;7.40;61.60;;;;;;5014775;28;20064;-62
2022/02/12 03:18:48;;;;;;;6.97;3.28;;;7.40;61.70;;;;;;5014697;28;20025;-64
2022/02/12 03:21:14;;;;;;;8.23;3.15;;;7.40;62.00;;;;;;5015481;28;20025;-63
2022/02/12 03:23:41;;;;;;;8.70;3.42;;;7.40;61.90;;;;;;4996663;28;20060;-65
2022/02/12 03:26:08;;;;;;;9.30;3.75;;;7.40;62.10;;;;;;5015127;28;20048;-63
2022/02/12 03:28:34;;;;;;;10.68;4.13;;;7.40;62.80;;;;;;5015540;28;20080;-64
2022/02/12 03:31:00;;;;;;;7.25;3.55;;;7.50;62.90;;;;;;4998385;28;20112;-64
2022/02/12 03:33:26;;;;;;;8.00;2.92;;;7.40;63.00;;;;;;5015280;28;20113;-63
2022/02/12 03:35:55;;;;;;;11.65;4.13;;;7.40;63.30;;;;;;5013185;28;20092;-63
2022/02/12 03:38:24;;;;;;;9.23;3.90;;;7.30;63.80;;;;;;5014862;28;20084;-65
2022/02/12 03:40:51;;;;;;;9.48;3.80;;;7.20;64.10;;;;;;5014702;28;20054;-63
2022/02/12 03:43:36;;;;;;;7.43;3.47;;;7.30;64.40;;;;;;5014886;28;20088;-64
2022/02/12 03:46:03;;;;;;;11.48;3.63;;;7.30;64.60;;;;;;4997029;28;20060;-64
2022/02/12 03:48:29;;;;;;;7.68;3.72;;;7.30;64.30;;;;;;4996388;28;20033;-64
2022/02/12 03:50:56;;;;;;;8.02;3.88;;;7.30;64.30;;;;;;5013266;28;20252;-64
2022/02/12 03:53:23;;;;;;;7.93;4.05;;;7.30;64.40;;;;;;5014346;28;20278;-67
2022/02/12 03:55:49;;;;;;;13.60;3.83;;;7.20;64.30;;;;;;5013741;28;20042;-63
2022/02/12 03:58:18;;;;;;;8.02;3.67;;;7.30;64.20;;;;;;4996346;28;20030;-62
2022/02/12 04:00:45;;;;;;;8.48;4.15;;;7.40;64.20;;;;;;5013724;28;20217;-63
2022/02/12 04:03:11;;;;;;;10.65;4.22;;;7.40;63.90;;;;;;5013861;28;20105;-63
2022/02/12 04:05:38;;;;;;;6.95;4.15;;;7.30;63.90;;;;;;4995908;28;20030;-63
2022/02/12 04:08:04;;;;;;;10.77;3.88;;;7.30;64.10;;;;;;4996386;28;20036;-64
2022/02/12 04:10:30;;;;;;;8.40;3.70;;;7.30;64.10;;;;;;5013084;28;20440;-63
2022/02/12 04:12:58;;;;;;;10.80;4.10;;;7.40;64.10;;;;;;5013873;28;20032;-63
2022/02/12 04:15:27;;;;;;;9.73;4.20;;;7.40;64.30;;;;;;4995283;28;20392;-68
2022/02/12 04:17:52;;;;;;;12.30;4.32;;;7.40;64.40;;;;;;4996002;28;20037;-63
2022/02/12 04:20:22;;;;;;;11.73;4.28;;;7.40;64.30;;;;;;4996024;28;20037;-63
2022/02/12 04:22:48;;;;;;;10.48;4.05;;;7.40;64.30;;;;;;5013491;28;20030;-63
2022/02/12 04:25:20;;;;;;;9.10;3.90;;;7.40;64.30;;;;;;5013681;28;20133;-64
2022/02/12 04:27:46;;;;;;;11.00;4.78;;;7.40;64.40;;;;;;5013282;28;20084;-63
2022/02/12 04:30:13;;;;;;;11.77;4.78;;;7.30;64.50;;;;;;4995628;28;20266;-63
2022/02/12 04:32:40;;;;;;;7.60;4.68;;;7.40;64.50;;;;;;5011986;28;20021;-63
2022/02/12 04:35:07;;;;;;;10.60;4.47;;;7.40;64.50;;;;;;5013118;28;20033;-64
2022/02/12 04:37:33;;;;;;;14.95;4.22;;;7.40;64.30;;;;;;4995201;28;20033;-63
2022/02/12 04:39:59;;;;;;;11.07;4.68;;;7.30;64.50;;;;;;5013029;28;20098;-63
2022/02/12 04:42:25;;;;;;;11.55;4.57;;;7.20;64.70;;;;;;4995017;28;20033;-66
2022/02/12 04:44:53;;;;;;;11.80;4.30;;;7.20;65.00;;;;;;4995497;28;20026;-63
2022/02/12 04:47:19;;;;;;;13.65;4.55;;;7.10;65.10;;;;;;5012785;28;20030;-63
2022/02/12 04:49:46;;;;;;;11.48;4.60;;;7.10;65.20;;;;;;5012245;28;20597;-63
2022/02/12 04:52:14;;;;;;;13.95;5.18;;;7.10;65.30;;;;;;5013039;28;20026;-63
2022/02/12 04:54:40;;;;;;;9.13;4.70;;;7.10;65.30;;;;;;4994742;28;20436;-63
2022/02/12 04:57:06;;;;;;;10.20;4.88;;;7.10;65.20;;;;;;4995221;28;20040;-64
2022/02/12 04:59:32;;;;;;;10.98;4.78;;;7.10;65.30;;;;;;5012269;28;20026;-62
2022/02/12 05:01:58;;;;;;;10.30;4.95;;;7.00;65.30;;;;;;4994918;28;20040;-64
2022/02/12 05:04:25;;;;;;;10.60;4.82;;;7.00;65.80;;;;;;5012278;28;20021;-71
2022/02/12 05:06:51;;;;;;;10.27;5.07;;;6.90;66.00;;;;;;5012651;28;20054;-62
2022/02/12 05:09:17;;;;;;;11.80;5.05;;;6.90;66.30;;;;;;5011452;28;20025;-64
2022/02/12 05:11:46;;;;;;;9.73;4.88;;;6.90;66.50;;;;;;5011857;28;20484;-63
2022/02/12 05:14:13;;;;;;;9.23;4.95;;;6.90;66.60;;;;;;5012431;28;20113;-63
2022/02/12 05:16:39;;;;;;;12.63;5.88;;;6.90;66.80;;;;;;5011894;28;20408;-63
2022/02/12 05:19:05;;;;;;;17.50;5.20;;;6.80;67.00;;;;;;5012904;28;20030;-64
2022/02/12 05:21:31;;;;;;;11.30;5.30;;;6.80;67.10;;;;;;5012244;28;20033;-63
2022/02/12 05:23:57;;;;;;;10.82;5.25;;;6.80;67.30;;;;;;5012171;28;20046;-63
2022/02/12 05:26:22;;;;;;;9.13;5.00;;;6.80;67.20;;;;;;4995025;28;20033;-63
2022/02/12 05:28:48;;;;;;;13.57;5.80;;;6.90;66.80;;;;;;5011383;28;20440;-66
2022/02/12 05:31:14;;;;;;;11.93;5.32;;;6.90;66.70;;;;;;5013108;28;20028;-63
2022/02/12 05:33:40;;;;;;;15.63;5.47;;;6.90;66.60;;;;;;5012548;28;20455;-64
2022/02/12 05:36:08;;;;;;;10.63;5.10;;;6.80;66.70;;;;;;5013094;28;20033;-62
2022/02/12 05:38:36;;;;;;;11.48;5.32;;;6.80;66.70;;;;;;5012268;28;20366;-62
2022/02/12 05:41:03;;;;;;;13.82;6.03;;;6.80;66.50;;;;;;5013134;28;20113;-63
2022/02/12 05:43:31;;;;;;;8.57;4.70;;;6.80;66.40;;;;;;5012211;28;20599;-62
2022/02/12 05:45:56;;;;;;;11.30;5.82;;;6.70;66.50;;;;;;4995524;28;20057;-62
2022/02/12 05:48:22;;;;;;;17.17;5.20;;;6.70;66.60;;;;;;5013024;28;20107;-63
2022/02/12 05:50:48;;;;;;;11.65;5.57;;;6.60;66.60;;;;;;5012432;28;20030;-63
2022/02/12 05:53:13;;;;;;;13.88;5.07;;;6.60;66.90;;;;;;5012586;28;20025;-63
2022/02/12 05:55:39;;;;;;;13.98;5.43;;;6.60;67.00;;;;;;5012029;28;20114;-63
2022/02/12 05:58:05;;;;;;;11.93;5.72;;;6.50;67.20;;;;;;5010967;28;20037;-63
2022/02/12 06:00:30;;;;;;;14.63;5.85;;;6.50;67.30;;;;;;5011101;28;20389;-63
2022/02/12 06:02:56;;;;;;;12.35;5.97;;;6.50;67.70;;;;;;5012054;28;20022;-63
2022/02/12 06:05:22;;;;;;;11.45;5.97;;;6.40;68.60;;;;;;4995459;28;20037;-63
2022/02/12 06:07:48;;;;;;;9.07;5.50;;;6.40;68.00;;;;;;5012001;28;20333;-62
2022/02/12 06:10:13;;;;;;;14.00;6.07;;;6.50;67.70;;;;;;5012639;28;20073;-63
2022/02/12 06:12:42;;;;;;;15.35;5.63;;;6.40;67.80;;;;;;4994517;28;20022;-62
2022/02/12 06:15:09;;;;;;;11.73;5.88;;;6.50;67.80;;;;;;5012644;28;20073;-67
2022/02/12 06:17:35;;;;;;;11.88;5.93;;;6.50;67.70;;;;;;5012183;28;20038;-63
2022/02/12 06:20:01;;;;;;;12.48;6.07;;;6.50;67.60;;;;;;5012517;28;20029;-63
2022/02/12 06:22:27;;;;;;;11.93;5.60;;;6.50;67.50;;;;;;4994987;28;20053;-62
2022/02/12 06:24:54;;;;;;;9.57;5.85;;;6.50;67.70;;;;;;4994007;28;20057;-63
2022/02/12 06:27:20;;;;;;;9.52;5.35;;;6.50;67.70;;;;;;4994913;28;20029;-63
2022/02/12 06:29:46;;;;;;;10.30;5.13;;;6.50;67.80;;;;;;4994290;28;20488;-64
2022/02/12 06:32:12;;;;;;;12.73;5.03;;;6.50;67.70;;;;;;5012123;28;20033;-64
2022/02/12 06:34:39;;;;;;;11.23;5.35;;;6.50;67.50;;;;;;5011535;28;20175;-63
2022/02/12 06:37:06;;;;;;;10.50;5.80;;;6.60;67.40;;;;;;5012199;28;20038;-64
2022/02/12 06:39:32;;;;;;;10.60;5.85;;;6.50;67.40;;;;;;5013800;28;20025;-67
2022/02/12 06:41:57;;;;;;;9.68;5.70;;;6.60;67.50;;;;;;5016069;28;20025;-65
2022/02/12 06:47:08;;;;;;;8.82;5.13;;;6.70;67.30;;;;;;5016101;28;20037;-63
2022/02/12 06:49:34;;;;;;;12.80;5.68;;;6.80;67.00;;;;;;5015567;28;20030;-63
2022/02/12 06:52:00;;;;;;;10.00;5.22;;;6.70;66.70;;;;;;5015875;28;20033;-62
2022/02/12 06:54:25;;;;;;;12.70;5.18;;;6.70;66.70;;;;;;5016004;28;20076;-62
2022/02/12 06:56:52;;;;;;;9.38;5.35;;;6.70;66.90;;;;;;5015434;28;20360;-62
2022/02/12 06:59:17;;;;;;;12.20;5.70;;;6.70;67.10;;;;;;5015918;28;20022;-63
2022/02/12 07:01:43;;;;;;;8.35;5.13;;;6.70;66.90;;;;;;4997567;28;20465;-62
2022/02/12 07:04:09;;;;;;;9.27;4.80;;;6.70;66.60;;;;;;5015819;28;20022;-62
2022/02/12 07:06:35;;;;;;;12.43;5.20;;;6.70;66.30;;;;;;4997557;28;20034;-63
2022/02/12 07:09:01;;;;;;;10.45;5.53;;;6.80;66.10;;;;;;5015812;28;20073;-62
2022/02/12 07:11:26;;;;;;;12.77;5.50;;;6.80;65.80;;;;;;5015736;28;20029;-63
2022/02/12 07:13:52;;;;;;;11.45;5.07;;;6.80;65.70;;;;;;5015256;28;20022;-63
2022/02/12 07:16:17;;;;;;;9.45;5.75;;;6.90;65.60;;;;;;4997721;28;20038;-63
2022/02/12 07:18:43;;;;;;;10.82;4.78;;;7.00;65.40;;;;;;4997210;28;20026;-63
2022/02/12 07:21:09;;;;;;;11.45;5.28;;;7.00;64.70;;;;;;4997967;28;20021;-63
2022/02/12 07:23:34;;;;;;;10.40;5.95;;;6.90;64.70;;;;;;4997738;28;20153;-67
2022/02/12 07:26:00;;;;;;;10.00;5.05;;;7.00;64.60;;;;;;4998215;28;20030;-63
2022/02/12 07:28:27;;;;;;;8.43;5.60;;;7.00;64.30;;;;;;5015743;28;20045;-63
2022/02/12 07:30:55;;;;;;;9.43;5.30;;;7.00;64.40;;;;;;5015163;28;20062;-63
2022/02/12 07:33:26;;;;;;;11.55;5.93;;;7.10;64.00;;;;;;5015296;28;20033;-63
2022/02/12 07:35:55;;;;;;;9.30;5.85;;;7.10;63.50;;;;;;5014748;28;20105;-63
2022/02/12 07:38:20;;;;;;;10.25;8.68;;;7.20;63.40;;;;;;5015237;28;20022;-63
2022/02/12 07:40:47;;;;;;;8.77;7.85;;;9.50;63.60;;;;;;5014468;28;20212;-64
2022/02/12 07:43:13;;;;;;;7.70;4.90;;;13.00;56.40;;;;;;5015069;28;20040;-63
2022/02/12 07:45:39;;;;;;;9.07;5.32;;;14.90;48.50;;;;;;5014497;28;20030;-63
2022/02/12 07:48:04;;;;;;;10.02;7.38;;;14.10;46.70;;;;;;5014977;28;20022;-63
2022/02/12 07:50:30;;;;;;;16.60;6.50;;;15.00;47.10;;;;;;5014249;28;20053;-63
2022/02/12 07:55:42;;;;;;;9.55;6.63;;;19.10;40.30;;;;;;5014084;28;20061;-62
2022/02/12 07:58:11;;;;;;;9.85;6.40;;;20.80;36.60;;;;;;5014568;28;20096;-63
2022/02/12 08:00:37;;;;;;;7.85;6.10;;;22.00;34.50;;;;;;5014802;28;20480;-63
2022/02/12 08:03:03;;;;;;;6.15;5.22;;;23.00;32.50;;;;;;4996629;28;20065;-64
2022/02/12 08:05:29;;;;;;;6.53;5.05;;;23.60;30.70;;;;;;5014502;28;20128;-65
2022/02/12 08:07:55;;;;;;;11.38;5.70;;;24.30;30.00;;;;;;5014472;28;20084;-67
2022/02/12 08:13:05;;;;;;;8.85;5.57;;;25.40;28.60;;;;;;5014253;28;20056;-66
2022/02/12 08:15:31;;;;;;;9.65;5.95;;;25.50;27.60;;;;;;4996265;28;20025;-66
2022/02/12 08:17:58;;;;;;;7.93;5.30;;;24.50;26.90;;;;;;5013102;28;20133;-65
2022/02/12 08:20:24;;;;;;;5.55;3.72;;;22.30;28.20;;;;;;5012910;28;20030;-66
2022/02/12 08:22:51;;;;;;;10.27;3.92;;;20.30;29.90;;;;;;5013327;28;20026;-67
2022/02/12 08:25:17;;;;;;;6.43;3.90;;;18.70;31.60;;;;;;5014188;28;20137;-66
2022/02/12 08:27:43;;;;;;;6.47;3.65;;;17.40;33.50;;;;;;4995866;28;20034;-65
2022/02/12 08:30:09;;;;;;;7.57;4.20;;;16.40;34.80;;;;;;4996114;28;20113;-66
2022/02/12 08:32:37;;;;;;;6.15;4.22;;;15.80;35.70;;;;;;4996188;28;20026;-63
2022/02/12 08:35:05;;;;;;;5.32;3.80;;;15.10;36.40;;;;;;4995677;28;20092;-64
2022/02/12 08:37:49;;;;;;;9.93;4.88;;;14.40;37.60;;;;;;5013816;28;20552;-64
2022/02/12 08:40:22;;;;;;;6.00;4.03;;;13.80;38.90;;;;;;5013040;28;20022;-64
2022/02/12 08:42:50;;;;;;;8.45;4.18;;;13.40;39.60;;;;;;5013083;28;20038;-64
2022/02/12 08:45:16;;;;;;;9.10;4.72;;;12.90;40.40;;;;;;5013500;28;20022;-63
2022/02/12 08:47:44;;;;;;;5.95;3.55;;;12.50;41.40;;;;;;5013154;28;20370;-67
2022/02/12 08:50:10;;;;;;;6.80;3.90;;;12.20;41.70;;;;;;5013613;28;20022;-64
2022/02/12 08:52:38;;;;;;;5.50;3.78;;;12.10;41.90;;;;;;5013387;28;20021;-63
2022/02/12 08:55:05;;;;;;;5.55;3.72;;;11.90;42.10;;;;;;5012421;28;20036;-64
2022/02/12 08:57:30;;;;;;;8.77;3.28;;;11.80;42.30;;;;;;5013369;28;20040;-65
2022/02/12 08:59:56;;;;;;;8.63;4.47;;;11.50;42.70;;;;;;5012668;28;20499;-65
2022/02/12 09:02:22;;;;;;;14.77;4.63;;;11.40;43.20;;;;;;5011313;28;20022;-66
2022/02/12 09:05:10;;;;;;;8.05;4.43;;;11.20;43.60;;;;;;5012507;28;20025;-64
2022/02/12 09:07:36;;;;;;;6.82;3.83;;;11.20;43.90;;;;;;5012084;28;20030;-66
2022/02/12 09:10:02;;;;;;;12.05;3.40;;;11.10;43.70;;;;;;5012013;28;20076;-65
2022/02/12 09:12:28;;;;;;;5.93;2.80;;;10.80;43.80;;;;;;5013030;28;20334;-65
2022/02/12 09:14:54;;;;;;;9.70;2.95;;;10.80;43.60;;;;;;5012272;28;20380;-65
2022/02/12 09:17:20;;;;;;;4.65;2.65;;;10.80;43.50;;;;;;5013004;28;20088;-64
2022/02/12 09:19:45;;;;;;;8.07;3.20;;;10.60;43.70;;;;;;5012069;28;20026;-62
2022/02/12 09:22:11;;;;;;;6.15;3.00;;;10.50;44.00;;;;;;4994970;28;20026;-64
2022/02/12 09:24:37;;;;;;;6.93;3.80;;;10.30;44.30;;;;;;5012639;28;20103;-64
2022/02/12 09:27:04;;;;;;;7.57;3.72;;;10.20;43.90;;;;;;5012594;28;20538;-64
2022/02/12 09:29:29;;;;;;;6.70;2.53;;;10.10;44.30;;;;;;5012828;28;20083;-67
2022/02/12 09:31:55;;;;;;;3.90;2.20;;;10.00;43.90;;;;;;5012368;28;20108;-64
2022/02/12 09:34:21;;;;;;;8.07;2.90;;;10.00;43.60;;;;;;5012829;28;20084;-64
2022/02/12 09:36:47;;;;;;;7.32;3.08;;;10.10;43.90;;;;;;4994170;28;20046;-65
2022/02/12 09:39:12;;;;;;;7.25;3.60;;;10.30;43.30;;;;;;5012514;28;20026;-65
2022/02/12 09:41:38;;;;;;;9.32;3.58;;;10.30;43.90;;;;;;5012849;28;20457;-65
2022/02/12 09:44:05;;;;;;;5.07;2.63;;;10.30;44.30;;;;;;5012157;28;20041;-65
2022/02/12 09:46:47;;;;;;;4.40;2.83;;;10.30;44.10;;;;;;4995041;28;20037;-65
2022/02/12 09:49:33;;;;;;;9.43;3.55;;;10.40;44.10;;;;;;5012502;28;20111;-64
2022/02/12 09:52:02;;;;;;;8.90;3.45;;;10.50;44.10;;;;;;5011380;28;20038;-65
2022/02/12 09:54:29;;;;;;;8.82;3.05;;;10.50;43.80;;;;;;5012331;28;20480;-65
2022/02/12 09:56:54;;;;;;;7.28;2.75;;;10.50;43.60;;;;;;5011733;28;20037;-66
2022/02/12 09:59:20;;;;;;;11.40;2.78;;;10.40;43.60;;;;;;5011925;28;20048;-64
2022/02/12 10:01:46;;;;;;;5.10;2.70;;;10.50;43.60;;;;;;5012105;28;20022;-66
2022/02/12 10:04:21;;;;;;;6.80;3.08;;;10.50;43.40;;;;;;5010557;28;20468;-65
2022/02/12 10:06:47;;;;;;;15.15;7.30;;;10.40;43.00;;;;;;4994960;28;20116;-64
2022/02/12 10:09:14;;;;;;;11.45;3.53;;;10.20;43.40;;;;;;4995384;28;20112;-65
2022/02/12 10:11:49;;;;;;;10.30;4.25;;;10.20;43.20;;;;;;5012032;28;20413;-65
2022/02/12 10:14:26;;;;;;;4.63;2.97;;;10.30;43.60;;;;;;5011468;28;20033;-64
2022/02/12 10:17:03;;;;;;;10.85;3.63;;;10.50;43.00;;;;;;4977529;28;20125;-64
2022/02/12 10:19:40;;;;;;;6.43;2.85;;;10.60;42.00;;;;;;5012002;28;20034;-64
2022/02/12 10:22:26;;;;;;;12.02;5.18;;;10.60;42.20;;;;;;5011449;28;20076;-64
2022/02/12 10:25:05;;;;;;;7.93;3.55;;;10.70;41.70;;;;;;4950032;28;20530;-63
2022/02/12 10:27:31;;;;;;;4.78;2.67;;;10.70;42.30;;;;;;4933931;29;20035;-62
2022/02/12 10:30:02;;;;;;;9.18;3.22;;;10.80;42.30;;;;;;4949925;29;20042;-63
2022/02/12 10:32:28;;;;;;;12.60;3.90;;;11.00;41.80;;;;;;4950995;29;20024;-70
2022/02/12 10:34:56;;;;;;;5.13;2.85;;;11.10;41.40;;;;;;4934133;29;20110;-62
2022/02/12 10:37:24;;;;;;;5.32;3.00;;;10.90;40.70;;;;;;4950699;29;20043;-64
2022/02/12 10:39:52;;;;;;;6.63;3.13;;;10.90;40.50;;;;;;4934660;29;20497;-65
2022/02/12 10:42:43;;;;;;;8.48;4.03;;;10.90;41.60;;;;;;4934368;29;20036;-61
2022/02/12 10:45:16;;;;;;;7.07;3.60;;;10.90;41.60;;;;;;4948784;29;20768;-61
2022/02/12 10:47:43;;;;;;;10.40;4.50;;;10.90;41.90;;;;;;4950615;29;20118;-63
2022/02/12 10:50:10;;;;;;;7.35;3.30;;;10.80;42.60;;;;;;4950770;29;20075;-63
2022/02/12 10:52:40;;;;;;;8.00;3.88;;;10.70;42.30;;;;;;4950603;29;20085;-62
2022/02/12 10:55:07;;;;;;;7.10;4.35;;;10.70;42.60;;;;;;4950914;29;20103;-62
2022/02/12 10:57:38;;;;;;;9.38;4.57;;;10.90;42.90;;;;;;4950902;29;20039;-62
2022/02/12 11:00:06;;;;;;;8.60;4.65;;;11.00;41.30;;;;;;4949610;29;20023;-62
2022/02/12 11:02:34;;;;;;;11.60;3.42;;;11.10;41.70;;;;;;4977769;28;20034;-61
2022/02/12 11:05:01;;;;;;;5.60;3.92;;;11.30;40.60;;;;;;5009804;28;20030;-62
2022/02/12 11:07:28;;;;;;;6.30;3.50;;;11.40;41.00;;;;;;4977419;28;20058;-64
2022/02/12 11:09:54;;;;;;;7.43;3.55;;;11.60;41.20;;;;;;5010517;28;20033;-63
2022/02/12 11:12:25;;;;;;;8.63;4.10;;;11.70;41.30;;;;;;5011664;28;20054;-62
2022/02/12 11:14:51;;;;;;;7.57;3.72;;;11.80;41.30;;;;;;5011597;28;20072;-62
2022/02/12 11:17:26;;;;;;;6.93;3.70;;;11.90;41.00;;;;;;5010879;28;20026;-62
2022/02/12 11:19:52;;;;;;;8.48;3.78;;;12.00;41.00;;;;;;4992978;28;20026;-68
2022/02/12 11:22:18;;;;;;;7.65;4.35;;;11.90;41.00;;;;;;4992944;28;20388;-61
2022/02/12 11:24:46;;;;;;;6.72;3.63;;;11.90;41.00;;;;;;4992724;28;20041;-62
2022/02/12 11:27:19;;;;;;;12.48;5.78;;;11.90;40.50;;;;;;4995425;28;20287;-61
2022/02/12 11:29:46;;;;;;;5.63;3.85;;;11.90;40.50;;;;;;5014498;28;20080;-61
2022/02/12 11:32:14;;;;;;;7.70;4.40;;;11.90;40.60;;;;;;5013685;28;20028;-62
2022/02/12 11:35:06;;;;;;;10.35;5.47;;;11.70;42.10;;;;;;4996616;28;20026;-62
2022/02/12 11:37:35;;;;;;;13.05;7.13;;;11.60;44.10;;;;;;5014288;28;20076;-62
2022/02/12 11:40:18;;;;;;;9.85;5.43;;;11.00;46.00;;;;;;5014288;28;20026;-64
2022/02/12 11:42:50;;;;;;;9.15;5.70;;;10.80;47.30;;;;;;5014496;28;20076;-62
2022/02/12 11:45:21;;;;;;;9.60;5.70;;;10.70;47.30;;;;;;4995792;28;20040;-65
2022/02/12 11:48:11;;;;;;;12.52;6.20;;;10.90;47.10;;;;;;4996882;28;20030;-62
2022/02/12 11:51:02;;;;;;;9.07;5.40;;;11.00;47.10;;;;;;5013989;28;20477;-62
2022/02/12 11:53:40;;;;;;;10.40;5.75;;;11.10;46.80;;;;;;5014066;28;20129;-63
2022/02/12 11:56:09;;;;;;;9.52;5.57;;;11.10;46.80;;;;;;4995925;28;20256;-62
2022/02/12 11:58:45;;;;;;;8.73;5.53;;;11.20;46.70;;;;;;5013414;28;20029;-66
2022/02/12 12:01:23;;;;;;;11.88;5.80;;;11.30;46.80;;;;;;4995419;28;20049;-60
2022/02/12 12:04:04;;;;;;;10.98;5.72;;;11.20;46.70;;;;;;5013984;28;20104;-60
2022/02/12 12:06:33;;;;;;;8.75;5.90;;;11.20;46.80;;;;;;4996223;28;20492;-57
2022/02/12 12:09:12;;;;;;;10.00;5.72;;;11.20;46.80;;;;;;5012739;28;20025;-55
2022/02/12 12:11:40;;;;;;;9.45;5.93;;;11.20;46.90;;;;;;4995534;28;20428;-58
2022/02/12 12:14:32;;;;;;;20.08;12.57;;;11.00;47.80;;;;;;5013069;28;20026;-57
2022/02/12 12:16:59;;;;;;;14.38;7.82;;;11.00;47.40;;;;;;5009507;28;20186;-57
2022/02/12 12:19:30;;;;;;;7.70;6.18;;;10.80;47.60;;;;;;5012489;28;20511;-55
2022/02/12 12:21:56;;;;;;;13.57;6.68;;;10.90;47.70;;;;;;5012542;28;20465;-59
2022/02/12 12:24:22;;;;;;;7.53;5.60;;;11.00;47.50;;;;;;4995236;28;20076;-55
2022/02/12 12:32:19;;;;;;;10.70;7.70;;;11.10;46.90;;;;;;5012571;28;20473;-57
2022/02/12 12:35:06;;;;;;;22.35;12.63;;;11.10;47.40;;;;;;5012069;28;20168;-57
2022/02/12 12:37:54;;;;;;;13.15;7.63;;;10.90;47.50;;;;;;4994136;28;20037;-57
2022/02/12 12:40:31;;;;;;;11.55;7.60;;;10.90;47.70;;;;;;5011731;28;20036;-55
2022/02/12 12:43:03;;;;;;;12.02;8.30;;;10.70;48.30;;;;;;5011788;28;20057;-58
2022/02/12 12:45:29;;;;;;;14.70;7.93;;;10.70;48.70;;;;;;5011880;28;20500;-58
2022/02/12 12:47:56;;;;;;;17.15;10.07;;;10.80;48.60;;;;;;4994436;28;20042;-58
2022/02/12 12:50:24;;;;;;;10.25;6.30;;;10.90;48.30;;;;;;4995243;28;20026;-56
2022/02/12 12:53:01;;;;;;;13.55;7.65;;;10.70;47.90;;;;;;4995162;28;20037;-56
2022/02/12 12:55:27;;;;;;;13.70;8.15;;;10.40;48.50;;;;;;5012521;28;20497;-55
2022/02/12 12:57:53;;;;;;;12.95;8.05;;;10.50;48.60;;;;;;5012719;28;20034;-56
2022/02/12 13:00:22;;;;;;;12.52;6.60;;;10.60;48.40;;;;;;4994183;28;20057;-56
2022/02/12 13:02:58;;;;;;;8.98;5.97;;;10.60;48.60;;;;;;5012787;28;20022;-58
2022/02/12 13:05:26;;;;;;;9.30;6.07;;;10.70;48.20;;;;;;5012626;28;20056;-54
2022/02/12 13:08:04;;;;;;;18.20;12.55;;;10.80;48.00;;;;;;5012250;28;20049;-53
2022/02/12 13:10:32;;;;;;;7.70;5.28;;;11.00;47.20;;;;;;4994799;28;20038;-55